createdAt,value
2019-03-28T00:00:05.033Z,82.10
2019-03-28T00:04:10.169Z,82.10
2019-03-28T00:08:15.382Z,82.20
2019-03-28T00:12:20.527Z,82.30
2019-03-28T00:16:25.648Z,82.00
2019-03-28T00:20:30.769Z,82.40
2019-03-28T00:24:44.078Z,82.60
2019-03-28T00:28:49.221Z,82.60
2019-03-28T00:32:54.317Z,82.60
2019-03-28T00:36:59.486Z,82.60
2019-03-28T00:41:04.933Z,83.20
2019-03-28T00:45:10.112Z,82.70
2019-03-28T00:49:15.265Z,82.80
2019-03-28T00:53:20.361Z,82.70
2019-03-28T00:57:25.499Z,82.80
2019-03-28T01:01:31.143Z,83.10
2019-03-28T01:05:36.650Z,82.90
2019-03-28T01:09:41.813Z,83.70
2019-03-28T01:13:46.931Z,82.80
2019-03-28T01:17:52.052Z,82.80
2019-03-28T01:21:57.176Z,83.00
2019-03-28T01:26:02.332Z,83.00
2019-03-28T01:30:08.048Z,83.10
2019-03-28T01:34:13.140Z,83.10
2019-03-28T01:38:18.251Z,83.20
2019-03-28T01:42:23.392Z,83.20
2019-03-28T01:46:28.516Z,83.30
2019-03-28T01:50:33.650Z,83.30
2019-03-28T01:54:38.760Z,83.40
2019-03-28T01:58:43.940Z,83.70
2019-03-28T02:02:49.068Z,83.40
2019-03-28T02:06:54.215Z,83.30
2019-03-28T02:10:59.380Z,83.60
2019-03-28T02:15:05.002Z,83.60
2019-03-28T02:19:10.127Z,84.30
2019-03-28T02:23:15.252Z,83.80
2019-03-28T02:27:24.331Z,83.70
2019-03-28T02:31:27.176Z,83.90
2019-03-28T02:35:32.310Z,83.90
2019-03-28T02:39:37.395Z,84.00
2019-03-28T02:43:42.584Z,84.00
2019-03-28T02:47:48.608Z,84.10
2019-03-28T02:51:53.731Z,84.20
2019-03-28T02:55:58.826Z,84.30
2019-03-28T03:00:04.099Z,84.40
2019-03-28T03:04:09.220Z,84.30
2019-03-28T03:08:14.410Z,84.30
2019-03-28T03:12:19.551Z,84.40
2019-03-28T03:16:24.639Z,84.40
2019-03-28T03:20:29.748Z,84.40
2019-03-28T03:24:34.872Z,84.40
2019-03-28T03:28:39.989Z,85.20
2019-03-28T03:32:45.120Z,84.40
2019-03-28T03:36:50.204Z,84.40
2019-03-28T03:40:55.332Z,84.40
2019-03-28T03:45:00.585Z,84.50
2019-03-28T03:49:05.889Z,84.30
2019-03-28T03:53:11.013Z,84.40
2019-03-28T03:57:16.142Z,84.40
2019-03-28T04:01:21.235Z,84.20
2019-03-28T04:05:26.367Z,84.20
2019-03-28T04:09:31.533Z,84.30
2019-03-28T04:13:36.720Z,84.30
2019-03-28T04:17:41.889Z,84.40
2019-03-28T04:21:46.971Z,84.40
2019-03-28T04:25:52.076Z,84.40
2019-03-28T04:29:57.206Z,84.50
2019-03-28T04:34:07.301Z,84.40
2019-03-28T04:38:09.092Z,84.40
2019-03-28T04:42:14.168Z,84.50
2019-03-28T04:46:19.291Z,83.70
2019-03-28T04:50:24.451Z,84.40
2019-03-28T04:54:29.582Z,84.40
2019-03-28T04:58:44.387Z,84.40
2019-03-28T05:02:41.535Z,84.60
2019-03-28T05:06:46.663Z,84.50
2019-03-28T05:10:51.824Z,84.50
2019-03-28T05:14:56.931Z,84.60
2019-03-28T05:19:02.041Z,84.70
2019-03-28T05:23:07.107Z,84.20
2019-03-28T05:27:12.207Z,84.70
2019-03-28T05:31:17.376Z,84.80
2019-03-28T05:35:22.507Z,84.80
2019-03-28T05:39:27.627Z,84.90
2019-03-28T05:43:32.720Z,84.90
2019-03-28T05:47:38.197Z,85.10
2019-03-28T05:51:43.312Z,85.10
2019-03-28T05:55:48.441Z,85.10
2019-03-28T05:59:53.547Z,85.10
2019-03-28T06:03:58.638Z,85.10
2019-03-28T06:08:03.763Z,85.20
2019-03-28T06:12:08.937Z,85.20
2019-03-28T06:16:14.048Z,85.30
2019-03-28T06:20:19.157Z,85.30
2019-03-28T06:24:24.236Z,85.50
2019-03-28T06:28:29.361Z,85.50
2019-03-28T06:32:42.767Z,85.60
2019-03-28T06:36:41.331Z,85.50
2019-03-28T06:40:46.445Z,85.50
2019-03-28T06:44:51.560Z,85.60
2019-03-28T06:48:56.739Z,85.50
2019-03-28T06:53:01.986Z,85.50
2019-03-28T06:57:07.159Z,85.30
2019-03-28T07:01:12.291Z,85.20
2019-03-28T07:05:17.508Z,85.70
2019-03-28T07:09:22.673Z,85.40
2019-03-28T07:13:27.827Z,85.30
2019-03-28T07:17:32.964Z,85.20
2019-03-28T07:21:38.091Z,85.20
2019-03-28T07:25:43.176Z,85.20
2019-03-28T07:29:51.005Z,85.20
2019-03-28T07:33:55.393Z,85.50
2019-03-28T07:38:00.523Z,85.20
2019-03-28T07:42:05.659Z,85.20
2019-03-28T07:46:10.753Z,85.20
2019-03-28T07:50:16.024Z,85.10
2019-03-28T07:54:21.170Z,85.20
2019-03-28T07:58:26.344Z,85.20
2019-03-28T08:02:32.766Z,85.10
2019-03-28T08:06:49.027Z,85.00
2019-03-28T08:10:44.708Z,84.50
2019-03-28T08:14:49.821Z,84.70
2019-03-28T08:18:54.938Z,84.40
2019-03-28T08:23:00.139Z,84.50
2019-03-28T08:27:05.289Z,84.20
2019-03-28T08:31:10.392Z,84.10
2019-03-28T08:35:15.653Z,83.90
2019-03-28T08:39:21.182Z,83.80
2019-03-28T08:43:26.309Z,83.80
2019-03-28T08:47:31.425Z,84.10
2019-03-28T08:51:36.527Z,83.80
2019-03-28T08:55:41.660Z,83.70
2019-03-28T08:59:46.785Z,83.50
2019-03-28T09:03:52.033Z,83.40
2019-03-28T09:07:57.152Z,83.20
2019-03-28T09:12:02.292Z,82.90
2019-03-28T09:16:07.423Z,83.30
2019-03-28T09:20:13.016Z,83.40
2019-03-28T09:24:18.140Z,83.40
2019-03-28T09:28:23.259Z,83.00
2019-03-28T09:32:29.056Z,82.70
2019-03-28T09:36:34.187Z,82.70
2019-03-28T09:40:39.407Z,83.00
2019-03-28T09:44:44.508Z,83.10
2019-03-28T09:48:49.627Z,82.50
2019-03-28T09:52:54.680Z,82.20
2019-03-28T09:57:00.153Z,81.80
2019-03-28T10:01:05.291Z,81.80
2019-03-28T10:05:10.557Z,81.90
2019-03-28T10:09:15.720Z,81.40
2019-03-28T10:13:20.944Z,81.60
2019-03-28T10:17:26.051Z,80.20
2019-03-28T10:21:31.144Z,79.70
2019-03-28T10:25:36.255Z,80.40
2019-03-28T10:29:41.393Z,80.20
2019-03-28T10:33:46.538Z,80.40
2019-03-28T10:37:51.571Z,79.20
2019-03-28T10:41:56.714Z,79.80
2019-03-28T10:46:01.813Z,79.80
2019-03-28T10:50:07.308Z,79.50
2019-03-28T10:54:20.135Z,78.80
2019-03-28T10:58:19.747Z,78.40
2019-03-28T11:02:24.875Z,75.70
2019-03-28T11:06:30.000Z,77.70
2019-03-28T11:10:35.164Z,76.20
2019-03-28T11:14:40.277Z,76.30
2019-03-28T11:18:45.368Z,74.90
2019-03-28T11:22:50.470Z,75.80
2019-03-28T11:26:55.573Z,75.10
2019-03-28T11:31:00.784Z,75.90
2019-03-28T11:35:06.987Z,75.40
2019-03-28T11:39:12.067Z,75.70
2019-03-28T11:43:17.244Z,74.90
2019-03-28T11:47:23.342Z,75.70
2019-03-28T11:51:29.012Z,75.70
2019-03-28T11:55:34.136Z,76.20
2019-03-28T11:59:39.219Z,75.80
2019-03-28T12:03:44.423Z,75.30
2019-03-28T12:07:49.535Z,75.50
2019-03-28T12:11:54.688Z,73.40
2019-03-28T12:15:59.812Z,75.20
2019-03-28T12:20:05.378Z,75.50
2019-03-28T12:24:10.496Z,74.60
2019-03-28T12:28:15.613Z,73.30
2019-03-28T12:32:20.740Z,73.30
2019-03-28T12:36:25.860Z,73.10
2019-03-28T12:40:30.955Z,72.80
2019-03-28T12:44:38.886Z,73.90
2019-03-28T12:48:44.003Z,73.70
2019-03-28T12:52:49.120Z,74.00
2019-03-28T12:56:54.213Z,73.70
2019-03-28T13:00:59.727Z,72.20
2019-03-28T13:05:05.229Z,72.70
2019-03-28T13:09:10.876Z,72.00
2019-03-28T13:13:16.007Z,72.90
2019-03-28T13:17:21.147Z,72.70
2019-03-28T13:21:26.197Z,71.70
2019-03-28T13:25:31.323Z,73.20
2019-03-28T13:29:36.547Z,72.80
2019-03-28T13:33:41.668Z,73.00
2019-03-28T13:37:46.781Z,73.30
2019-03-28T13:41:51.853Z,73.30
2019-03-28T13:45:57.287Z,73.50
2019-03-28T13:50:02.391Z,72.90
2019-03-28T13:54:07.497Z,71.90
2019-03-28T13:58:13.803Z,72.40
2019-03-28T14:02:19.099Z,72.20
2019-03-28T14:06:24.207Z,72.70
2019-03-28T14:10:29.332Z,72.00
2019-03-28T14:14:34.475Z,72.30
2019-03-28T14:18:39.591Z,72.80
2019-03-28T14:22:44.665Z,73.00
2019-03-28T14:26:49.780Z,73.20
2019-03-28T14:30:54.918Z,73.40
2019-03-28T14:35:00.373Z,73.10
2019-03-28T14:39:07.740Z,73.40
2019-03-28T14:43:12.896Z,73.30
2019-03-28T14:47:18.061Z,73.20
2019-03-28T14:51:23.183Z,73.00
2019-03-28T14:55:28.376Z,73.20
2019-03-28T14:59:34.721Z,72.60
2019-03-28T15:03:40.014Z,72.50
2019-03-28T15:07:45.132Z,71.70
2019-03-28T15:11:50.285Z,72.30
2019-03-28T15:15:55.403Z,72.50
2019-03-28T15:20:00.512Z,72.10
2019-03-28T15:24:05.712Z,72.60
2019-03-28T15:28:10.851Z,72.50
2019-03-28T15:32:15.971Z,72.20
2019-03-28T15:36:23.137Z,72.20
2019-03-28T15:40:27.832Z,72.50
2019-03-28T15:44:32.888Z,72.90
2019-03-28T15:48:38.004Z,73.00
2019-03-28T15:52:43.123Z,72.90
2019-03-28T15:56:48.260Z,72.80
2019-03-28T16:00:53.381Z,73.40
2019-03-28T16:04:58.460Z,73.10
2019-03-28T16:09:04.659Z,73.20
2019-03-28T16:13:09.862Z,73.00
2019-03-28T16:17:14.980Z,72.50
2019-03-28T16:21:20.110Z,72.60
2019-03-28T16:25:25.189Z,72.80
2019-03-28T16:29:30.344Z,72.80
2019-03-28T16:33:35.510Z,72.80
2019-03-28T16:37:40.636Z,72.80
2019-03-28T16:41:45.784Z,72.90
2019-03-28T16:45:52.241Z,73.00
2019-03-28T16:49:57.365Z,72.80
2019-03-28T16:54:02.488Z,73.00
2019-03-28T16:58:07.620Z,73.00
2019-03-28T17:02:12.769Z,73.20
2019-03-28T17:06:17.953Z,73.30
2019-03-28T17:10:42.854Z,73.30
2019-03-28T17:14:49.220Z,73.70
2019-03-28T17:18:54.357Z,73.70
2019-03-28T17:22:59.626Z,73.90
2019-03-28T17:27:04.806Z,73.00
2019-03-28T17:31:09.968Z,74.50
2019-03-28T17:35:15.153Z,74.80
2019-03-28T17:39:20.403Z,75.00
2019-03-28T17:43:25.705Z,74.80
2019-03-28T17:47:30.853Z,75.40
2019-03-28T17:51:36.013Z,75.10
2019-03-28T17:55:41.188Z,75.20
2019-03-28T17:59:46.351Z,75.00
2019-03-28T18:03:51.542Z,75.00
2019-03-28T18:07:56.715Z,75.10
2019-03-28T18:12:01.897Z,75.20
2019-03-28T18:16:07.562Z,75.20
2019-03-28T18:20:13.192Z,75.40
2019-03-28T18:24:18.353Z,75.30
2019-03-28T18:28:23.546Z,75.50
2019-03-28T18:32:28.676Z,75.60
2019-03-28T18:36:35.227Z,75.30
2019-03-28T18:40:40.389Z,75.00
2019-03-28T18:44:45.541Z,75.40
2019-03-28T18:48:50.672Z,75.50
2019-03-28T18:52:55.771Z,75.70
2019-03-28T18:57:03.267Z,75.70
2019-03-28T19:01:07.703Z,76.00
2019-03-28T19:05:19.513Z,76.20
2019-03-28T19:09:19.871Z,75.80
2019-03-28T19:13:24.964Z,75.60
2019-03-28T19:17:30.090Z,75.80
2019-03-28T19:21:35.191Z,75.50
2019-03-28T19:25:40.311Z,75.80
2019-03-28T19:29:45.532Z,75.70
2019-03-28T19:33:50.633Z,76.20
2019-03-28T19:37:55.862Z,76.70
2019-03-28T19:42:04.284Z,76.50
2019-03-28T19:46:08.118Z,76.40
2019-03-28T19:50:16.481Z,76.70
2019-03-28T19:54:21.594Z,76.70
2019-03-28T19:58:26.831Z,76.70
2019-03-28T20:02:31.971Z,76.80
2019-03-28T20:06:40.385Z,77.00
2019-03-28T20:10:45.551Z,77.20
2019-03-28T20:14:50.623Z,77.50
2019-03-28T20:18:55.761Z,77.20
2019-03-28T20:23:01.205Z,77.30
2019-03-28T20:27:06.328Z,77.30
2019-03-28T20:31:11.484Z,77.40
2019-03-28T20:35:16.602Z,77.50
2019-03-28T20:39:21.740Z,77.40
2019-03-28T20:43:28.405Z,77.70
2019-03-28T20:47:35.097Z,77.70
2019-03-28T20:51:40.307Z,77.90
2019-03-28T20:55:45.483Z,77.90
2019-03-28T20:59:50.609Z,77.80
2019-03-28T21:03:55.972Z,77.90
2019-03-28T21:08:01.288Z,77.70
2019-03-28T21:12:06.440Z,77.80
2019-03-28T21:16:11.921Z,77.60
2019-03-28T21:20:17.262Z,77.60
2019-03-28T21:24:22.404Z,77.80
2019-03-28T21:28:27.545Z,77.80
2019-03-28T21:32:32.663Z,77.70
2019-03-28T21:36:37.752Z,78.00
2019-03-28T21:40:42.850Z,78.00
2019-03-28T21:44:48.801Z,78.20
2019-03-28T21:48:54.104Z,78.20
2019-03-28T21:52:59.227Z,78.30
2019-03-28T21:57:04.327Z,78.30
2019-03-28T22:01:09.414Z,78.10
2019-03-28T22:05:14.535Z,78.30
2019-03-28T22:09:19.689Z,78.40
2019-03-28T22:13:24.909Z,78.00
2019-03-28T22:17:30.047Z,78.50
2019-03-28T22:21:35.940Z,78.50
2019-03-28T22:25:41.251Z,78.80
2019-03-28T22:29:46.975Z,79.00
2019-03-28T22:33:52.396Z,78.60
2019-03-28T22:37:57.560Z,78.20
2019-03-28T22:42:02.664Z,77.90
2019-03-28T22:46:07.787Z,77.70
2019-03-28T22:50:13.220Z,78.10
2019-03-28T22:54:18.336Z,78.20
2019-03-28T22:58:23.456Z,78.60
2019-03-28T23:02:29.009Z,79.00
2019-03-28T23:06:34.281Z,79.00
2019-03-28T23:10:39.452Z,79.20
2019-03-28T23:14:44.865Z,79.00
2019-03-28T23:18:50.112Z,78.50
2019-03-28T23:22:55.852Z,78.40
2019-03-28T23:27:01.190Z,78.90
2019-03-28T23:31:06.380Z,79.00
2019-03-28T23:35:11.503Z,78.80
2019-03-28T23:39:16.595Z,78.80
2019-03-28T23:43:21.730Z,78.90
2019-03-28T23:47:26.831Z,78.90
2019-03-28T23:51:31.964Z,78.80
2019-03-28T23:55:37.088Z,78.90
2019-03-28T23:59:42.176Z,79.10
